createdAt,value
2023-01-03T00:00:34.144Z,2.13
2023-01-03T00:01:37.904Z,1.90
2023-01-03T00:02:41.142Z,2.13
2023-01-03T00:03:43.417Z,2.72
2023-01-03T00:04:49.667Z,1.92
2023-01-03T00:05:52.476Z,2.03
2023-01-03T00:06:57.077Z,2.50
2023-01-03T00:07:59.593Z,2.05
2023-01-03T00:09:03.983Z,1.75
2023-01-03T00:10:09.169Z,2.40
2023-01-03T00:11:12.465Z,1.70
2023-01-03T00:12:30.897Z,2.17
2023-01-03T00:13:34.462Z,1.77
2023-01-03T00:14:38.079Z,2.00
2023-01-03T00:15:41.097Z,1.85
2023-01-03T00:16:43.251Z,2.22
2023-01-03T00:17:46.394Z,1.92
2023-01-03T00:18:48.404Z,1.70
2023-01-03T00:19:51.513Z,1.60
2023-01-03T00:20:53.572Z,1.90
2023-01-03T00:21:58.678Z,2.33
2023-01-03T00:23:02.335Z,2.00
2023-01-03T00:24:05.422Z,2.03
2023-01-03T00:25:09.063Z,1.83
2023-01-03T00:26:11.446Z,1.85
2023-01-03T00:27:15.446Z,2.10
2023-01-03T00:28:17.496Z,1.73
2023-01-03T00:29:20.636Z,1.90
2023-01-03T00:30:22.836Z,2.00
2023-01-03T00:31:26.186Z,1.80
2023-01-03T00:32:28.287Z,1.73
2023-01-03T00:33:32.552Z,2.20
2023-01-03T00:34:36.375Z,1.70
2023-01-03T00:35:38.500Z,1.92
2023-01-03T00:36:42.254Z,1.75
2023-01-03T00:37:46.604Z,1.73
2023-01-03T00:38:48.887Z,2.08
2023-01-03T00:39:51.908Z,1.42
2023-01-03T00:40:53.971Z,1.75
2023-01-03T00:41:57.861Z,2.10
2023-01-03T00:43:18.309Z,1.65
2023-01-03T00:44:21.807Z,2.10
2023-01-03T00:45:25.738Z,1.77
2023-01-03T00:46:29.560Z,2.20
2023-01-03T00:47:31.635Z,1.75
2023-01-03T00:48:35.186Z,1.90
2023-01-03T00:49:38.258Z,1.88
2023-01-03T00:50:40.311Z,2.08
2023-01-03T00:51:43.764Z,2.28
2023-01-03T00:52:48.187Z,1.55
2023-01-03T00:53:53.502Z,1.80
2023-01-03T00:54:56.577Z,1.80
2023-01-03T00:56:02.743Z,1.60
2023-01-03T00:57:05.879Z,2.05
2023-01-03T00:58:07.899Z,1.65
2023-01-03T00:59:12.389Z,1.80
2023-01-03T01:00:15.122Z,2.00
2023-01-03T01:01:20.189Z,2.10
2023-01-03T01:02:23.516Z,1.85
2023-01-03T01:03:26.854Z,1.60
2023-01-03T01:04:32.784Z,1.70
2023-01-03T01:05:34.958Z,1.70
2023-01-03T01:06:41.112Z,1.80
2023-01-03T01:07:43.225Z,2.10
2023-01-03T01:08:49.527Z,1.52
2023-01-03T01:09:51.645Z,1.80
2023-01-03T01:11:03.901Z,1.70
2023-01-03T01:12:07.386Z,1.73
2023-01-03T01:13:10.532Z,2.38
2023-01-03T01:14:21.867Z,2.38
2023-01-03T01:15:24.977Z,1.92
2023-01-03T01:16:29.221Z,1.85
2023-01-03T01:17:32.363Z,1.75
2023-01-03T01:18:35.148Z,2.05
2023-01-03T01:19:40.064Z,2.00
2023-01-03T01:20:42.127Z,2.17
2023-01-03T01:21:45.514Z,1.83
2023-01-03T01:22:47.599Z,1.70
2023-01-03T01:23:53.203Z,1.95
2023-01-03T01:24:56.271Z,2.10
2023-01-03T01:26:00.384Z,1.98
2023-01-03T01:27:03.972Z,2.03
2023-01-03T01:28:06.122Z,1.95
2023-01-03T01:29:10.671Z,2.10
2023-01-03T01:30:13.605Z,1.95
2023-01-03T01:31:19.684Z,2.00
2023-01-03T01:32:21.851Z,2.08
2023-01-03T01:33:24.914Z,1.98
2023-01-03T01:34:28.090Z,1.83
2023-01-03T01:35:30.375Z,1.73
2023-01-03T01:36:37.491Z,2.15
2023-01-03T01:37:39.543Z,2.13
2023-01-03T01:38:42.566Z,2.00
2023-01-03T01:39:46.970Z,2.03
2023-01-03T01:40:49.042Z,1.83
2023-01-03T01:42:18.303Z,2.28
2023-01-03T01:43:41.133Z,1.75
2023-01-03T01:44:53.033Z,1.83
2023-01-03T01:45:55.197Z,1.73
2023-01-03T01:46:58.469Z,1.70
2023-01-03T01:48:05.924Z,1.95
2023-01-03T01:49:16.301Z,2.05
2023-01-03T01:50:23.650Z,1.52
2023-01-03T01:51:29.634Z,2.22
2023-01-03T01:52:35.319Z,1.90
2023-01-03T01:53:42.180Z,1.90
2023-01-03T01:54:46.169Z,1.92
2023-01-03T01:55:53.015Z,1.27
2023-01-03T01:56:55.556Z,1.83
2023-01-03T01:57:58.897Z,1.90
2023-01-03T01:59:01.584Z,1.88
2023-01-03T02:00:06.120Z,2.28
2023-01-03T02:01:12.023Z,1.80
2023-01-03T02:02:20.409Z,2.70
2023-01-03T02:03:23.746Z,2.28
2023-01-03T02:04:30.915Z,2.17
2023-01-03T02:05:35.742Z,2.10
2023-01-03T02:06:40.063Z,1.90
2023-01-03T02:07:43.093Z,2.13
2023-01-03T02:08:46.188Z,2.17
2023-01-03T02:09:52.506Z,2.15
2023-01-03T02:11:14.087Z,2.30
2023-01-03T02:12:56.968Z,2.42
2023-01-03T02:14:08.779Z,2.20
2023-01-03T02:15:19.331Z,2.75
2023-01-03T02:16:32.479Z,2.25
2023-01-03T02:17:44.595Z,2.40
2023-01-03T02:18:54.223Z,2.42
2023-01-03T02:20:21.513Z,2.67
2023-01-03T02:21:53.761Z,2.58
2023-01-03T02:23:29.291Z,2.60
2023-01-03T02:25:04.523Z,2.42
2023-01-03T02:26:32.448Z,2.60
2023-01-03T02:28:03.453Z,2.88
2023-01-03T02:30:33.040Z,2.80
2023-01-03T02:31:44.909Z,2.75
2023-01-03T02:32:54.478Z,3.05
2023-01-03T02:34:04.833Z,2.80
2023-01-03T02:35:14.112Z,2.58
2023-01-03T02:36:24.725Z,2.95
2023-01-03T02:37:35.461Z,2.70
2023-01-03T02:39:57.099Z,3.10
2023-01-03T02:41:06.967Z,2.80
2023-01-03T02:42:33.203Z,3.22
2023-01-03T02:43:43.053Z,2.97
2023-01-03T02:44:52.014Z,2.80
2023-01-03T02:46:04.113Z,3.13
2023-01-03T02:47:09.398Z,2.90
2023-01-03T02:48:17.884Z,3.15
2023-01-03T02:49:25.029Z,2.83
2023-01-03T02:50:32.474Z,2.92
2023-01-03T02:51:38.617Z,2.97
2023-01-03T02:52:43.005Z,4.03
2023-01-03T02:53:48.719Z,3.08
2023-01-03T02:54:57.658Z,3.03
2023-01-03T02:56:10.809Z,2.80
2023-01-03T02:57:17.271Z,2.75
2023-01-03T02:58:23.375Z,2.75
2023-01-03T02:59:34.291Z,2.60
2023-01-03T03:00:41.644Z,2.65
2023-01-03T03:01:50.161Z,2.92
2023-01-03T03:02:59.072Z,3.08
2023-01-03T03:04:06.869Z,2.83
2023-01-03T03:05:15.276Z,2.97
2023-01-03T03:06:26.234Z,2.50
2023-01-03T03:07:32.048Z,2.70
2023-01-03T03:08:35.244Z,2.80
2023-01-03T03:09:57.356Z,2.90
2023-01-03T03:11:18.603Z,2.70
2023-01-03T03:12:41.809Z,2.85
2023-01-03T03:13:47.903Z,2.75
2023-01-03T03:14:53.440Z,2.80
2023-01-03T03:16:02.520Z,2.80
2023-01-03T03:17:09.278Z,2.92
2023-01-03T03:18:17.215Z,2.88
2023-01-03T03:19:45.695Z,2.85
2023-01-03T03:21:06.337Z,2.88
2023-01-03T03:22:32.892Z,3.15
2023-01-03T03:23:56.635Z,3.20
2023-01-03T03:25:02.872Z,3.33
2023-01-03T03:26:09.856Z,2.90
2023-01-03T03:27:32.008Z,3.30
2023-01-03T03:28:41.866Z,3.40
2023-01-03T03:29:44.083Z,3.45
2023-01-03T03:30:52.103Z,3.55
2023-01-03T03:31:56.141Z,3.13
2023-01-03T03:33:05.820Z,3.28
2023-01-03T03:34:12.867Z,3.10
2023-01-03T03:35:17.785Z,3.45
2023-01-03T03:36:29.328Z,3.63
2023-01-03T03:37:36.537Z,3.65
2023-01-03T03:38:43.110Z,3.63
2023-01-03T03:40:05.222Z,3.42
2023-01-03T03:41:34.575Z,3.20
2023-01-03T03:43:02.423Z,3.10
2023-01-03T03:44:33.079Z,3.13
2023-01-03T03:45:40.779Z,3.40
2023-01-03T03:46:55.168Z,3.67
2023-01-03T03:48:07.237Z,3.80
2023-01-03T03:49:33.354Z,4.00
2023-01-03T03:50:41.392Z,3.05
2023-01-03T03:51:45.872Z,3.60
2023-01-03T03:52:53.094Z,3.25
2023-01-03T03:53:56.456Z,3.30
2023-01-03T03:55:04.740Z,3.80
2023-01-03T03:56:09.803Z,3.35
2023-01-03T03:57:18.827Z,3.70
2023-01-03T03:58:27.466Z,3.95
2023-01-03T03:59:33.329Z,3.47
2023-01-03T04:00:39.875Z,3.65
2023-01-03T04:01:44.324Z,3.78
2023-01-03T04:02:48.795Z,3.65
2023-01-03T04:03:56.032Z,3.60
2023-01-03T04:05:02.114Z,3.53
2023-01-03T04:06:10.429Z,3.58
2023-01-03T04:07:13.586Z,3.72
2023-01-03T04:08:15.673Z,3.50
2023-01-03T04:09:19.141Z,3.75
2023-01-03T04:10:23.622Z,3.95
2023-01-03T04:11:25.750Z,3.40
2023-01-03T04:12:28.757Z,3.13
2023-01-03T04:13:30.908Z,3.42
2023-01-03T04:14:34.244Z,3.88
2023-01-03T04:15:38.145Z,4.13
2023-01-03T04:16:41.062Z,3.67
2023-01-03T04:17:44.686Z,3.53
2023-01-03T04:18:46.798Z,4.43
2023-01-03T04:19:51.217Z,4.18
2023-01-03T04:20:53.569Z,3.75
2023-01-03T04:21:56.606Z,3.70
2023-01-03T04:22:58.729Z,4.07
2023-01-03T04:24:01.779Z,3.42
2023-01-03T04:25:04.518Z,3.72
2023-01-03T04:26:07.526Z,4.20
2023-01-03T04:27:09.584Z,4.60
2023-01-03T04:28:12.599Z,4.10
2023-01-03T04:29:14.824Z,4.55
2023-01-03T04:30:17.924Z,4.13
2023-01-03T04:31:19.988Z,4.03
2023-01-03T04:32:23.128Z,4.43
2023-01-03T04:33:25.188Z,4.65
2023-01-03T04:34:28.239Z,4.25
2023-01-03T04:35:31.763Z,4.20
2023-01-03T04:36:34.838Z,4.43
2023-01-03T04:37:36.896Z,4.60
2023-01-03T04:38:39.990Z,4.13
2023-01-03T04:39:43.016Z,4.50
2023-01-03T04:40:45.007Z,4.53
2023-01-03T04:41:48.044Z,4.82
2023-01-03T04:43:20.070Z,4.55
2023-01-03T04:44:22.920Z,4.55
2023-01-03T04:45:25.258Z,4.05
2023-01-03T04:46:28.955Z,4.40
2023-01-03T04:47:31.584Z,4.10
2023-01-03T04:48:34.587Z,4.35
2023-01-03T04:49:36.651Z,4.63
2023-01-03T04:50:41.089Z,4.10
2023-01-03T04:51:43.106Z,4.40
2023-01-03T04:52:46.139Z,4.63
2023-01-03T04:53:48.229Z,4.32
2023-01-03T04:54:51.276Z,4.38
2023-01-03T04:55:54.177Z,4.50
2023-01-03T04:56:57.237Z,4.10
2023-01-03T04:57:59.302Z,4.07
2023-01-03T04:59:02.585Z,3.85
2023-01-03T05:00:05.728Z,4.35
2023-01-03T05:01:10.047Z,4.10
2023-01-03T05:02:12.329Z,4.35
2023-01-03T05:03:15.641Z,4.20
2023-01-03T05:04:18.180Z,3.95
2023-01-03T05:05:21.255Z,4.00
2023-01-03T05:06:25.697Z,3.97
2023-01-03T05:07:27.931Z,4.07
2023-01-03T05:08:32.110Z,4.07
2023-01-03T05:09:34.114Z,3.85
2023-01-03T05:10:39.414Z,4.05
2023-01-03T05:11:41.413Z,4.07
2023-01-03T05:12:59.634Z,4.07
2023-01-03T05:14:02.765Z,3.67
2023-01-03T05:15:05.460Z,3.92
2023-01-03T05:16:10.633Z,3.90
2023-01-03T05:17:12.728Z,3.55
2023-01-03T05:18:16.007Z,3.95
2023-01-03T05:19:18.486Z,4.18
2023-01-03T05:20:39.360Z,4.18
2023-01-03T05:23:21.946Z,4.18
2023-01-03T05:24:42.360Z,4.13
2023-01-03T05:25:51.074Z,4.18
2023-01-03T05:26:54.560Z,4.22
2023-01-03T05:27:57.824Z,3.92
2023-01-03T05:29:00.987Z,4.25
2023-01-03T05:30:03.279Z,3.92
2023-01-03T05:31:06.620Z,4.43
2023-01-03T05:32:09.692Z,4.88
2023-01-03T05:33:12.129Z,4.68
2023-01-03T05:34:15.430Z,4.30
2023-01-03T05:35:17.421Z,4.03
2023-01-03T05:36:20.456Z,4.60
2023-01-03T05:37:25.105Z,4.97
2023-01-03T05:38:27.186Z,4.57
2023-01-03T05:39:30.189Z,4.57
2023-01-03T05:40:37.652Z,4.85
2023-01-03T05:42:02.304Z,5.10
2023-01-03T05:43:05.460Z,5.05
2023-01-03T05:44:08.547Z,4.80
2023-01-03T05:45:10.989Z,4.90
2023-01-03T05:46:14.138Z,5.13
2023-01-03T05:47:16.251Z,5.70
2023-01-03T05:48:21.757Z,5.68
2023-01-03T05:49:23.937Z,5.43
2023-01-03T05:50:27.023Z,5.88
2023-01-03T05:51:29.389Z,5.95
2023-01-03T05:52:33.866Z,6.18
2023-01-03T05:53:35.882Z,5.80
2023-01-03T05:54:38.933Z,5.95
2023-01-03T05:55:40.930Z,5.53
2023-01-03T05:56:44.347Z,6.20
2023-01-03T05:57:47.358Z,6.40
2023-01-03T05:58:50.406Z,5.65
2023-01-03T05:59:52.555Z,6.20
2023-01-03T06:00:55.553Z,6.35
2023-01-03T06:01:57.769Z,6.15
2023-01-03T06:03:00.943Z,5.63
2023-01-03T06:04:03.184Z,5.90
2023-01-03T06:05:07.519Z,6.10
2023-01-03T06:06:09.862Z,6.15
2023-01-03T06:07:12.897Z,6.43
2023-01-03T06:08:16.285Z,6.53
2023-01-03T06:09:19.503Z,6.18
2023-01-03T06:10:21.563Z,6.10
2023-01-03T06:11:24.830Z,6.20
2023-01-03T06:12:27.091Z,6.75
2023-01-03T06:13:30.112Z,6.88
2023-01-03T06:14:32.169Z,6.10
2023-01-03T06:15:35.268Z,6.07
2023-01-03T06:16:56.087Z,5.80
2023-01-03T06:18:00.315Z,6.50
2023-01-03T06:19:03.630Z,6.70
2023-01-03T06:20:07.198Z,6.72
2023-01-03T06:21:09.200Z,6.05
2023-01-03T06:22:12.300Z,5.70
2023-01-03T06:23:15.980Z,6.93
2023-01-03T06:24:18.994Z,6.22
2023-01-03T06:25:21.551Z,6.10
2023-01-03T06:26:25.996Z,6.28
2023-01-03T06:27:28.089Z,6.30
2023-01-03T06:28:31.149Z,6.85
2023-01-03T06:29:33.239Z,6.07
2023-01-03T06:30:36.283Z,6.05
2023-01-03T06:31:38.352Z,6.07
2023-01-03T06:32:41.378Z,6.55
2023-01-03T06:33:43.861Z,6.13
2023-01-03T06:34:46.914Z,5.90
2023-01-03T06:35:48.926Z,6.22
2023-01-03T06:36:51.908Z,6.40
2023-01-03T06:37:53.961Z,6.55
2023-01-03T06:38:59.494Z,6.35
2023-01-03T06:40:01.554Z,6.47
2023-01-03T06:41:04.938Z,6.43
2023-01-03T06:42:21.847Z,6.28
2023-01-03T06:43:25.011Z,5.93
2023-01-03T06:44:27.073Z,6.60
2023-01-03T06:46:02.386Z,6.80
2023-01-03T06:47:25.436Z,6.15
2023-01-03T06:48:46.729Z,5.85
2023-01-03T06:50:07.655Z,6.03
2023-01-03T06:51:29.506Z,5.32
2023-01-03T06:52:50.720Z,6.22
2023-01-03T06:53:53.929Z,5.68
2023-01-03T06:54:57.527Z,6.18
2023-01-03T06:56:00.646Z,5.80
2023-01-03T06:57:03.709Z,5.60
2023-01-03T06:58:05.764Z,6.00
2023-01-03T06:59:08.837Z,6.05
2023-01-03T07:00:12.173Z,5.50
2023-01-03T07:01:16.285Z,5.80
2023-01-03T07:02:18.583Z,5.50
2023-01-03T07:03:22.572Z,5.63
2023-01-03T07:04:26.756Z,5.82
2023-01-03T07:05:28.903Z,5.57
2023-01-03T07:06:31.926Z,5.40
2023-01-03T07:07:34.026Z,5.20
2023-01-03T07:08:38.476Z,5.40
2023-01-03T07:09:44.384Z,5.13
2023-01-03T07:10:47.793Z,5.15
2023-01-03T07:11:50.809Z,4.85
2023-01-03T07:13:11.505Z,5.70
2023-01-03T07:14:13.677Z,5.68
2023-01-03T07:15:15.712Z,5.32
2023-01-03T07:16:20.212Z,5.20
2023-01-03T07:17:22.249Z,4.95
2023-01-03T07:18:26.252Z,5.55
2023-01-03T07:19:29.346Z,5.05
2023-01-03T07:20:31.386Z,4.93
2023-01-03T07:21:35.634Z,4.95
2023-01-03T07:22:37.631Z,5.03
2023-01-03T07:23:40.693Z,4.85
2023-01-03T07:24:42.697Z,4.85
2023-01-03T07:25:45.693Z,4.25
2023-01-03T07:26:50.068Z,4.47
2023-01-03T07:28:00.434Z,4.45
2023-01-03T07:29:10.563Z,4.25
2023-01-03T07:30:13.432Z,4.15
2023-01-03T07:31:16.438Z,4.20
2023-01-03T07:32:18.563Z,4.32
2023-01-03T07:33:21.577Z,4.30
2023-01-03T07:34:24.589Z,3.88
2023-01-03T07:35:26.587Z,3.97
2023-01-03T07:36:30.068Z,3.80
2023-01-03T07:37:32.127Z,3.75
2023-01-03T07:38:35.503Z,3.88
2023-01-03T07:39:37.536Z,4.47
2023-01-03T07:40:40.729Z,4.18
2023-01-03T07:42:01.090Z,4.00
2023-01-03T07:43:22.872Z,4.25
2023-01-03T07:44:25.891Z,4.30
2023-01-03T07:45:27.951Z,4.32
2023-01-03T07:46:32.263Z,4.10
2023-01-03T07:47:34.380Z,3.90
2023-01-03T07:48:38.048Z,3.70
2023-01-03T07:49:41.062Z,4.30
2023-01-03T07:50:43.123Z,4.05
2023-01-03T07:51:46.145Z,4.03
2023-01-03T07:52:48.284Z,4.30
2023-01-03T07:53:52.282Z,4.22
2023-01-03T07:54:54.334Z,4.57
2023-01-03T07:56:07.746Z,4.07
2023-01-03T07:57:15.499Z,4.47
2023-01-03T07:58:18.951Z,4.30
2023-01-03T07:59:21.991Z,4.20
2023-01-03T08:00:24.056Z,4.28
2023-01-03T08:01:27.477Z,4.25
2023-01-03T08:02:29.693Z,4.07
2023-01-03T08:03:33.091Z,3.97
2023-01-03T08:04:36.177Z,4.43
2023-01-03T08:05:38.335Z,4.63
2023-01-03T08:06:42.166Z,4.72
2023-01-03T08:07:44.208Z,5.20
2023-01-03T08:09:08.822Z,4.72
2023-01-03T08:10:29.592Z,4.10
2023-01-03T08:11:50.324Z,4.60
2023-01-03T08:13:11.115Z,4.72
2023-01-03T08:14:19.208Z,4.93
2023-01-03T08:16:27.766Z,4.57
2023-01-03T08:17:29.851Z,4.93
2023-01-03T08:18:32.856Z,5.90
2023-01-03T08:19:37.803Z,5.72
2023-01-03T08:20:44.873Z,5.57
2023-01-03T08:21:47.902Z,5.75
2023-01-03T08:22:49.985Z,5.75
2023-01-03T08:23:52.983Z,6.57
2023-01-03T08:24:55.022Z,6.45
2023-01-03T08:26:01.381Z,6.00
2023-01-03T08:27:05.098Z,5.88
2023-01-03T08:28:08.170Z,6.72
2023-01-03T08:29:11.233Z,6.10
2023-01-03T08:30:14.758Z,6.75
2023-01-03T08:31:20.655Z,6.60
2023-01-03T08:32:22.901Z,5.82
2023-01-03T08:33:27.640Z,6.78
2023-01-03T08:34:36.376Z,6.55
2023-01-03T08:35:41.181Z,6.80
2023-01-03T08:36:48.261Z,6.65
2023-01-03T08:37:50.924Z,7.03
2023-01-03T08:38:58.855Z,6.78
2023-01-03T08:40:06.272Z,7.20
2023-01-03T08:41:10.271Z,7.95
2023-01-03T08:42:16.814Z,6.78
2023-01-03T08:43:20.051Z,7.13
2023-01-03T08:44:22.058Z,8.18
2023-01-03T08:45:28.111Z,7.80
2023-01-03T08:46:34.155Z,8.00
2023-01-03T08:47:37.299Z,8.00
2023-01-03T08:48:39.635Z,7.68
2023-01-03T08:49:43.693Z,8.18
2023-01-03T08:50:46.946Z,7.78
2023-01-03T08:51:49.086Z,8.00
2023-01-03T08:52:52.303Z,8.48
2023-01-03T08:53:54.340Z,8.48
2023-01-03T08:54:57.485Z,8.50
2023-01-03T08:56:01.293Z,8.48
2023-01-03T08:57:04.326Z,9.30
2023-01-03T08:58:08.902Z,8.30
2023-01-03T08:59:11.968Z,7.60
2023-01-03T09:00:15.172Z,7.90
2023-01-03T09:01:20.913Z,8.15
2023-01-03T09:02:23.312Z,8.23
2023-01-03T09:03:26.632Z,8.20
2023-01-03T09:04:28.770Z,7.97
2023-01-03T09:05:31.794Z,8.20
2023-01-03T09:06:35.181Z,8.25
2023-01-03T09:07:37.245Z,8.45
2023-01-03T09:08:40.314Z,8.48
2023-01-03T09:09:42.362Z,8.68
2023-01-03T09:10:47.959Z,8.25
2023-01-03T09:11:50.093Z,8.30
2023-01-03T09:12:53.234Z,8.35
2023-01-03T09:13:57.052Z,8.00
2023-01-03T09:14:59.021Z,8.25
2023-01-03T09:16:03.204Z,8.52
2023-01-03T09:17:07.638Z,8.57
2023-01-03T09:18:10.653Z,8.10
2023-01-03T09:19:12.636Z,8.18
2023-01-03T09:20:17.461Z,8.32
2023-01-03T09:21:20.508Z,8.10
2023-01-03T09:22:22.572Z,8.30
2023-01-03T09:23:25.621Z,7.75
2023-01-03T09:24:28.656Z,8.27
2023-01-03T09:25:36.842Z,8.20
2023-01-03T09:26:40.660Z,8.27
2023-01-03T09:27:47.543Z,8.00
2023-01-03T09:28:49.632Z,7.80
2023-01-03T09:29:53.267Z,7.38
2023-01-03T09:30:56.689Z,7.53
2023-01-03T09:32:01.271Z,7.35
2023-01-03T09:33:06.072Z,8.23
2023-01-03T09:34:08.140Z,7.63
2023-01-03T09:35:11.447Z,8.48
2023-01-03T09:36:13.667Z,8.18
2023-01-03T09:37:16.954Z,7.05
2023-01-03T09:38:19.227Z,6.90
2023-01-03T09:39:22.266Z,7.18
2023-01-03T09:40:25.413Z,8.52
2023-01-03T09:41:27.684Z,8.55
2023-01-03T09:42:48.650Z,8.35
2023-01-03T09:44:56.063Z,7.70
2023-01-03T09:46:01.371Z,7.70
2023-01-03T09:47:05.580Z,8.15
2023-01-03T09:48:15.186Z,8.15
2023-01-03T09:49:18.236Z,7.90
2023-01-03T09:50:44.381Z,8.23
2023-01-03T09:52:05.213Z,7.78
2023-01-03T09:53:26.108Z,8.35
2023-01-03T09:56:12.243Z,7.60
2023-01-03T09:57:36.044Z,8.50
2023-01-03T09:58:58.020Z,8.35
2023-01-03T10:00:33.319Z,8.27
2023-01-03T10:02:03.579Z,7.90
2023-01-03T10:03:50.190Z,7.70
2023-01-03T10:05:22.818Z,8.80
2023-01-03T10:06:35.595Z,8.40
2023-01-03T10:08:00.626Z,8.60
2023-01-03T10:09:16.309Z,8.38
2023-01-03T10:10:25.260Z,7.47
2023-01-03T10:11:39.556Z,8.32
2023-01-03T10:12:53.713Z,8.15
2023-01-03T10:14:13.653Z,7.53
2023-01-03T10:15:26.667Z,7.72
2023-01-03T10:16:41.706Z,8.15
2023-01-03T10:17:58.966Z,8.40
2023-01-03T10:19:25.934Z,8.40
2023-01-03T10:20:42.262Z,8.45
2023-01-03T10:21:53.244Z,8.70
2023-01-03T10:22:57.841Z,8.88
2023-01-03T10:24:01.412Z,8.30
2023-01-03T10:25:12.699Z,8.43
2023-01-03T10:26:15.696Z,8.88
2023-01-03T10:27:22.208Z,8.35
2023-01-03T10:28:29.118Z,8.32
2023-01-03T10:29:31.192Z,8.18
2023-01-03T10:30:46.481Z,7.85
2023-01-03T10:32:09.646Z,8.27
2023-01-03T10:33:29.505Z,8.57
2023-01-03T10:34:33.918Z,8.00
2023-01-03T10:35:37.504Z,8.32
2023-01-03T10:36:40.982Z,8.63
2023-01-03T10:37:44.631Z,8.50
2023-01-03T10:38:52.887Z,8.52
2023-01-03T10:40:03.617Z,8.65
2023-01-03T10:41:17.405Z,8.65
2023-01-03T10:42:20.751Z,8.15
2023-01-03T10:43:29.638Z,8.02
2023-01-03T10:44:34.272Z,8.27
2023-01-03T10:45:51.970Z,9.05
2023-01-03T10:46:57.394Z,8.43
2023-01-03T10:48:00.820Z,8.63
2023-01-03T10:49:27.848Z,8.55
2023-01-03T10:50:38.811Z,8.63
2023-01-03T10:51:49.097Z,8.48
2023-01-03T10:52:57.555Z,8.93
2023-01-03T10:54:02.615Z,8.90
2023-01-03T10:55:13.687Z,8.02
2023-01-03T10:56:18.205Z,8.45
2023-01-03T10:57:43.774Z,8.55
2023-01-03T10:58:46.185Z,8.57
2023-01-03T10:59:50.664Z,8.30
2023-01-03T11:00:54.669Z,8.82
2023-01-03T11:02:02.290Z,9.57
2023-01-03T11:03:16.268Z,8.48
2023-01-03T11:04:19.964Z,7.88
2023-01-03T11:05:24.128Z,8.55
2023-01-03T11:06:28.674Z,8.45
2023-01-03T11:07:30.823Z,9.35
2023-01-03T11:08:42.721Z,7.72
2023-01-03T11:09:51.867Z,8.18
2023-01-03T11:10:57.282Z,8.18
2023-01-03T11:12:15.233Z,7.60
2023-01-03T11:13:24.047Z,8.00
2023-01-03T11:14:29.368Z,8.40
2023-01-03T11:15:39.173Z,7.80
2023-01-03T11:16:42.690Z,8.20
2023-01-03T11:17:56.428Z,7.97
2023-01-03T11:19:01.555Z,8.45
2023-01-03T11:20:18.960Z,7.82
2023-01-03T11:21:29.658Z,8.02
2023-01-03T11:24:04.338Z,7.28
2023-01-03T11:25:20.678Z,7.68
2023-01-03T11:26:33.686Z,8.10
2023-01-03T11:28:02.837Z,7.40
2023-01-03T11:29:30.486Z,7.65
2023-01-03T11:30:41.500Z,7.45
2023-01-03T11:31:53.551Z,6.65
2023-01-03T11:33:14.340Z,7.03
2023-01-03T11:35:20.975Z,8.38
2023-01-03T11:36:20.844Z,7.05
2023-01-03T11:37:31.964Z,6.18
2023-01-03T11:38:51.435Z,5.70
2023-01-03T11:40:08.995Z,6.15
2023-01-03T11:41:22.168Z,5.40
2023-01-03T11:42:37.370Z,5.57
2023-01-03T11:43:57.311Z,5.40
2023-01-03T11:45:34.039Z,5.53
2023-01-03T11:46:52.194Z,5.28
2023-01-03T11:48:07.410Z,5.70
2023-01-03T11:49:27.714Z,5.20
2023-01-03T11:50:42.327Z,5.50
2023-01-03T11:51:55.031Z,5.40
2023-01-03T11:53:03.099Z,4.90
2023-01-03T11:54:23.465Z,5.50
2023-01-03T11:55:50.368Z,4.82
2023-01-03T11:56:54.504Z,4.72
2023-01-03T11:58:14.068Z,4.85
2023-01-03T11:59:51.834Z,4.88
2023-01-03T12:01:02.176Z,4.53
2023-01-03T12:02:36.096Z,4.40
2023-01-03T12:04:01.084Z,3.67
2023-01-03T12:05:20.680Z,3.70
2023-01-03T12:06:32.147Z,4.07
2023-01-03T12:07:56.154Z,3.50
2023-01-03T12:09:14.216Z,3.20
2023-01-03T12:10:24.585Z,3.38
2023-01-03T12:11:48.735Z,2.90
2023-01-03T12:13:10.302Z,3.97
2023-01-03T12:14:20.656Z,3.95
2023-01-03T12:15:27.263Z,3.65
2023-01-03T12:16:33.873Z,3.55
2023-01-03T12:17:44.683Z,3.40
2023-01-03T12:19:58.694Z,3.38
2023-01-03T12:21:07.741Z,4.00
2023-01-03T12:22:19.016Z,3.90
2023-01-03T12:23:40.706Z,3.78
2023-01-03T12:24:50.384Z,4.30
2023-01-03T12:25:57.306Z,3.53
2023-01-03T12:27:06.571Z,4.20
2023-01-03T12:28:17.814Z,3.88
2023-01-03T12:29:25.524Z,4.25
2023-01-03T12:30:37.463Z,4.25
2023-01-03T12:31:47.585Z,4.15
2023-01-03T12:32:55.117Z,4.30
2023-01-03T12:34:06.512Z,3.90
2023-01-03T12:35:20.054Z,4.10
2023-01-03T12:36:32.559Z,4.40
2023-01-03T12:37:38.990Z,4.07
2023-01-03T12:38:45.960Z,3.92
2023-01-03T12:39:55.509Z,3.97
2023-01-03T12:41:07.895Z,3.92
2023-01-03T12:42:23.150Z,4.55
2023-01-03T12:43:34.381Z,3.70
2023-01-03T12:44:40.430Z,3.70
2023-01-03T12:45:51.425Z,3.83
2023-01-03T12:46:57.381Z,4.10
2023-01-03T12:48:09.346Z,3.92
2023-01-03T12:49:17.944Z,4.32
2023-01-03T12:50:28.122Z,4.38
2023-01-03T12:51:31.363Z,3.80
2023-01-03T12:52:37.324Z,4.07
2023-01-03T12:53:47.310Z,4.15
2023-01-03T12:54:57.049Z,3.70
2023-01-03T12:56:29.960Z,4.03
2023-01-03T12:57:57.162Z,3.80
2023-01-03T12:59:10.325Z,4.22
2023-01-03T13:00:23.912Z,4.97
2023-01-03T13:01:31.519Z,4.00
2023-01-03T13:02:45.288Z,3.97
2023-01-03T13:03:54.509Z,3.80
2023-01-03T13:05:14.093Z,3.95
2023-01-03T13:06:21.834Z,3.67
2023-01-03T13:07:29.993Z,3.75
2023-01-03T13:08:40.183Z,3.88
2023-01-03T13:09:47.422Z,3.88
2023-01-03T13:10:58.102Z,4.22
2023-01-03T13:13:17.116Z,3.70
2023-01-03T13:14:22.433Z,3.67
2023-01-03T13:15:35.813Z,4.05
2023-01-03T13:16:45.088Z,3.58
2023-01-03T13:17:50.188Z,3.90
2023-01-03T13:18:53.311Z,4.03
2023-01-03T13:19:58.714Z,4.63
2023-01-03T13:21:02.208Z,5.10
2023-01-03T13:22:19.243Z,4.50
2023-01-03T13:23:35.131Z,4.45
2023-01-03T13:24:41.746Z,4.28
2023-01-03T13:25:44.948Z,4.10
2023-01-03T13:27:20.496Z,4.50
2023-01-03T13:28:38.115Z,4.57
2023-01-03T13:29:46.199Z,4.18
2023-01-03T13:30:49.779Z,4.50
2023-01-03T13:32:05.024Z,4.30
2023-01-03T13:33:19.222Z,5.00
2023-01-03T13:34:34.933Z,4.45
2023-01-03T13:35:52.894Z,4.70
2023-01-03T13:37:20.361Z,5.22
2023-01-03T13:38:29.400Z,4.93
2023-01-03T13:39:38.556Z,5.20
2023-01-03T13:41:16.564Z,5.65
2023-01-03T13:42:22.022Z,6.25
2023-01-03T13:43:36.070Z,6.90
2023-01-03T13:44:43.903Z,6.63
2023-01-03T13:45:57.530Z,6.63
2023-01-03T13:47:00.737Z,6.13
2023-01-03T13:48:18.867Z,6.22
2023-01-03T13:49:24.651Z,6.45
2023-01-03T13:50:29.908Z,6.78
2023-01-03T13:51:49.168Z,6.03
2023-01-03T13:52:58.909Z,6.32
2023-01-03T13:54:05.720Z,6.32
2023-01-03T13:55:35.140Z,6.25
2023-01-03T13:57:06.858Z,7.05
2023-01-03T13:58:31.361Z,6.15
2023-01-03T13:59:42.514Z,6.78
2023-01-03T14:00:48.108Z,6.53
2023-01-03T14:02:13.207Z,6.40
2023-01-03T14:03:38.721Z,6.55
2023-01-03T14:05:12.903Z,6.90
2023-01-03T14:07:01.714Z,6.85
2023-01-03T14:08:31.794Z,6.72
2023-01-03T14:10:07.591Z,6.70
2023-01-03T14:11:38.575Z,6.95
2023-01-03T14:13:10.180Z,6.72
2023-01-03T14:14:15.879Z,8.30
2023-01-03T14:15:25.964Z,7.88
2023-01-03T14:16:43.226Z,7.35
2023-01-03T14:17:49.400Z,7.40
2023-01-03T14:19:02.910Z,7.80
2023-01-03T14:20:09.680Z,6.75
2023-01-03T14:21:25.434Z,7.03
2023-01-03T14:22:38.060Z,7.65
2023-01-03T14:24:01.132Z,6.80
2023-01-03T14:25:07.691Z,7.22
2023-01-03T14:26:15.175Z,7.20
2023-01-03T14:27:20.525Z,6.82
2023-01-03T14:28:25.887Z,7.47
2023-01-03T14:29:29.844Z,7.50
2023-01-03T14:30:34.304Z,7.82
2023-01-03T14:31:47.275Z,7.50
2023-01-03T14:32:49.812Z,7.57
2023-01-03T14:33:57.323Z,7.30
2023-01-03T14:35:00.430Z,7.35
2023-01-03T14:36:05.372Z,7.05
2023-01-03T14:37:14.816Z,7.68
2023-01-03T14:38:23.432Z,7.38
2023-01-03T14:40:34.957Z,7.30
2023-01-03T14:41:39.756Z,6.85
2023-01-03T14:42:46.160Z,7.20
2023-01-03T14:43:48.342Z,7.30
2023-01-03T14:44:56.416Z,6.93
2023-01-03T14:46:03.447Z,6.45
2023-01-03T14:47:15.838Z,6.78
2023-01-03T14:48:19.320Z,6.82
2023-01-03T14:49:26.281Z,7.68
2023-01-03T14:50:33.580Z,6.88
2023-01-03T14:51:39.239Z,7.22
2023-01-03T14:52:45.775Z,7.55
2023-01-03T14:53:48.470Z,7.18
2023-01-03T14:54:59.986Z,7.30
2023-01-03T14:56:06.956Z,7.38
2023-01-03T14:57:19.022Z,7.45
2023-01-03T14:58:29.436Z,7.35
2023-01-03T14:59:34.008Z,6.72
2023-01-03T15:00:37.791Z,6.85
2023-01-03T15:01:40.517Z,6.72
2023-01-03T15:02:47.204Z,6.53
2023-01-03T15:03:51.972Z,6.40
2023-01-03T15:04:56.832Z,6.82
2023-01-03T15:06:02.948Z,7.10
2023-01-03T15:07:13.489Z,6.72
2023-01-03T15:08:23.941Z,6.70
2023-01-03T15:09:26.850Z,6.82
2023-01-03T15:10:35.250Z,7.35
2023-01-03T15:11:56.191Z,6.97
2023-01-03T15:13:04.555Z,6.22
2023-01-03T15:14:08.462Z,6.40
2023-01-03T15:15:20.394Z,6.13
2023-01-03T15:16:27.829Z,6.30
2023-01-03T15:17:31.023Z,7.03
2023-01-03T15:18:40.845Z,6.97
2023-01-03T15:19:50.898Z,5.93
2023-01-03T15:20:56.215Z,6.55
2023-01-03T15:22:09.287Z,6.40